地図

経路データ

SID SEASON NUMBER BASIN SUBBASIN NAME ISO_TIME NATURE LAT LON WMO_WIND WMO_PRES WMO_AGENCY TRACK_TYPE DIST2LAND LANDFALL IFLAG USA_AGENCY USA_ATCF_ID USA_LAT USA_LON USA_RECORD USA_STATUS USA_WIND USA_PRES USA_SSHS USA_R34_NE USA_R34_SE USA_R34_SW USA_R34_NW USA_R50_NE USA_R50_SE USA_R50_SW USA_R50_NW USA_R64_NE USA_R64_SE USA_R64_SW USA_R64_NW USA_POCI USA_ROCI USA_RMW USA_EYE TOKYO_LAT TOKYO_LON TOKYO_GRADE TOKYO_WIND TOKYO_PRES TOKYO_R50_DIR TOKYO_R50_LONG TOKYO_R50_SHORT TOKYO_R30_DIR TOKYO_R30_LONG TOKYO_R30_SHORT TOKYO_LAND CMA_LAT CMA_LON CMA_CAT CMA_WIND CMA_PRES HKO_LAT HKO_LON HKO_CAT HKO_WIND HKO_PRES NEWDELHI_LAT NEWDELHI_LON NEWDELHI_GRADE NEWDELHI_WIND NEWDELHI_PRES NEWDELHI_CI NEWDELHI_DP NEWDELHI_POCI REUNION_LAT REUNION_LON REUNION_TYPE REUNION_WIND REUNION_PRES REUNION_TNUM REUNION_CI REUNION_RMW REUNION_R34_NE REUNION_R34_SE REUNION_R34_SW REUNION_R34_NW REUNION_R50_NE REUNION_R50_SE REUNION_R50_SW REUNION_R50_NW REUNION_R64_NE REUNION_R64_SE REUNION_R64_SW REUNION_R64_NW BOM_LAT BOM_LON BOM_TYPE BOM_WIND BOM_PRES BOM_TNUM BOM_CI BOM_RMW BOM_R34_NE BOM_R34_SE BOM_R34_SW BOM_R34_NW BOM_R50_NE BOM_R50_SE BOM_R50_SW BOM_R50_NW BOM_R64_NE BOM_R64_SE BOM_R64_SW BOM_R64_NW BOM_ROCI BOM_POCI BOM_EYE BOM_POS_METHOD BOM_PRES_METHOD NADI_LAT NADI_LON NADI_CAT NADI_WIND NADI_PRES WELLINGTON_LAT WELLINGTON_LON WELLINGTON_WIND WELLINGTON_PRES DS824_LAT DS824_LON DS824_STAGE DS824_WIND DS824_PRES TD9636_LAT TD9636_LON TD9636_STAGE TD9636_WIND TD9636_PRES TD9635_LAT TD9635_LON TD9635_WIND TD9635_PRES TD9635_ROCI NEUMANN_LAT NEUMANN_LON NEUMANN_CLASS NEUMANN_WIND NEUMANN_PRES MLC_LAT MLC_LON MLC_CLASS MLC_WIND MLC_PRES USA_GUST BOM_GUST BOM_GUST_PER REUNION_GUST REUNION_GUST_PER USA_SEAHGT USA_SEARAD_NE USA_SEARAD_SE USA_SEARAD_SW USA_SEARAD_NW STORM_SPEED STORM_DIR
1961322N23305 1961 120 NA NA NOT_NAMED 1961-11-17 18:00:00 TS 22.5000 -55.0000 25 hurdat_atl main 1195 1195 O_____________ hurdat_atl AL121961 22.5000 -55.0000 TD 25 -1 16 23
1961322N23305 1961 120 NA NA NOT_NAMED 1961-11-17 21:00:00 TS 23.2552 -54.6532 main 1257 1257 P_____________ AL121961 23.2552 -54.6532 TD 25 -1 16 23
1961322N23305 1961 120 NA NA NOT_NAMED 1961-11-18 00:00:00 TS 24.0000 -54.3000 25 hurdat_atl main 1327 1327 O_____________ hurdat_atl AL121961 24.0000 -54.3000 TD 25 -1 16 24
1961322N23305 1961 120 NA NA NOT_NAMED 1961-11-18 03:00:00 TS 24.7224 -53.9423 main 1398 1398 P_____________ AL121961 24.7224 -53.9423 TD 25 -1 15 24
1961322N23305 1961 120 NA NA NOT_NAMED 1961-11-18 06:00:00 TS 25.4000 -53.6000 25 1004 hurdat_atl main 1463 1463 O_____________ hurdat_atl AL121961 25.4000 -53.6000 TD 25 1004 -1 15 24
1961322N23305 1961 120 NA NA NOT_NAMED 1961-11-18 09:00:00 TS 26.0523 -53.2997 main 1528 1528 P_____________ AL121961 26.0523 -53.2997 TD 27 -1 13 24
1961322N23305 1961 120 NA NA NOT_NAMED 1961-11-18 12:00:00 TS 26.6000 -53.0000 30 hurdat_atl main 1584 1584 O_____________ hurdat_atl AL121961 26.6000 -53.0000 TD 30 -1 11 29
1961322N23305 1961 120 NA NA NOT_NAMED 1961-11-18 15:00:00 TS 27.0020 -52.7019 main 1633 1633 P_____________ AL121961 27.0020 -52.7019 TD 30 -1 9 42
1961322N23305 1961 120 NA NA NOT_NAMED 1961-11-18 18:00:00 TS 27.3000 -52.3000 30 hurdat_atl main 1684 1684 O_____________ hurdat_atl AL121961 27.3000 -52.3000 TD 30 -1 10 57
1961322N23305 1961 120 NA NA NOT_NAMED 1961-11-18 21:00:00 TS 27.5650 -51.7097 main 1752 1752 P_____________ AL121961 27.5650 -51.7097 TD 30 -1 13 67
1961322N23305 1961 120 NA NA NOT_NAMED 1961-11-19 00:00:00 TS 27.8000 -51.0000 30 hurdat_atl main 1822 1822 O_____________ hurdat_atl AL121961 27.8000 -51.0000 TD 30 -1 13 71
1961322N23305 1961 120 NA NA NOT_NAMED 1961-11-19 03:00:00 TS 27.9967 -50.3005 main 1892 1892 P_____________ AL121961 27.9967 -50.3005 TD 32 -1 14 69
1961322N23305 1961 120 NA NA NOT_NAMED 1961-11-19 06:00:00 TS 28.3000 -49.5000 35 hurdat_atl main 1977 1977 O_____________ hurdat_atl AL121961 28.3000 -49.5000 TS 35 0 18 63
1961322N23305 1961 120 NA NA NOT_NAMED 1961-11-19 09:00:00 TS 28.7959 -48.5000 main 2023 1964 P_____________ AL121961 28.7959 -48.5000 TS 37 0 21 56
1961322N23305 1961 120 NA NA NOT_NAMED 1961-11-19 12:00:00 TS 29.5000 -47.5000 40 hurdat_atl main 1966 1885 O_____________ hurdat_atl AL121961 29.5000 -47.5000 TS 40 0 23 44
1961322N23305 1961 120 NA NA NOT_NAMED 1961-11-19 15:00:00 TS 30.4189 -46.7120 main 1888 1808 P_____________ AL121961 30.4189 -46.7120 TS 40 0 23 34
1961322N23305 1961 120 NA NA NOT_NAMED 1961-11-19 18:00:00 TS 31.4000 -46.0000 40 hurdat_atl main 1800 1737 O_____________ hurdat_atl AL121961 31.4000 -46.0000 TS 40 0 22 34
1961322N23305 1961 120 NA NA NOT_NAMED 1961-11-19 21:00:00 TS 32.2288 -45.2849 main 1737 1682 P_____________ AL121961 32.2288 -45.2849 TS 40 0 20 38
1961322N23305 1961 120 NA NA NOT_NAMED 1961-11-20 00:00:00 TS 33.0000 -44.5000 40 hurdat_atl main 1682 1637 O_____________ hurdat_atl AL121961 33.0000 -44.5000 TS 40 0 22 44
1961322N23305 1961 120 NA NA NOT_NAMED 1961-11-20 03:00:00 TS 33.8033 -43.5014 main 1641 1612 P_____________ AL121961 33.8033 -43.5014 TS 40 0 22 48
1961322N23305 1961 120 NA NA NOT_NAMED 1961-11-20 06:00:00 TS 34.5000 -42.5000 40 hurdat_atl main 1616 1602 O_____________ hurdat_atl AL121961 34.5000 -42.5000 TS 40 0 19 51
1961322N23305 1961 120 NA NA NOT_NAMED 1961-11-20 09:00:00 TS 35.0012 -41.7099 main 1607 1600 P_____________ AL121961 35.0012 -41.7099 TS 42 0 15 54
1961322N23305 1961 120 NA NA NOT_NAMED 1961-11-20 12:00:00 TS 35.4000 -41.0000 45 hurdat_atl main 1606 1602 O_____________ hurdat_atl AL121961 35.4000 -41.0000 TS 45 0 14 56
1961322N23305 1961 120 NA NA NOT_NAMED 1961-11-20 15:00:00 TS 35.8073 -40.2343 main 1614 1605 P_____________ AL121961 35.8073 -40.2343 TS 47 0 15 57
1961322N23305 1961 120 NA NA NOT_NAMED 1961-11-20 18:00:00 TS 36.2000 -39.5000 50 hurdat_atl main 1618 1616 O_____________ hurdat_atl AL121961 36.2000 -39.5000 TS 50 0 14 57
1961322N23305 1961 120 NA NA NOT_NAMED 1961-11-20 21:00:00 TS 36.5545 -38.8256 main 1626 1626 P_____________ AL121961 36.5545 -38.8256 TS 50 0 13 53
1961322N23305 1961 120 NA NA NOT_NAMED 1961-11-21 00:00:00 ET 37.0000 -38.2000 50 hurdat_atl main 1630 1615 O_____________ hurdat_atl AL121961 37.0000 -38.2000 EX 50 -4 15 42
1961322N23305 1961 120 NA NA NOT_NAMED 1961-11-21 03:00:00 ET 37.6407 -37.5982 main 1621 1599 P_____________ AL121961 37.6407 -37.5982 EX 50 -4 17 34
1961322N23305 1961 120 NA NA NOT_NAMED 1961-11-21 06:00:00 ET 38.4000 -37.0000 50 hurdat_atl main 1599 O_____________ hurdat_atl AL121961 38.4000 -37.0000 EX 50 -4 18 32

IBTrACS Databaseについて

本データベースは、米国NOAAが公開する1842年以降の世界の熱帯低気圧のベストトラックデータアーカイブInternational Best Track Archive for Climate Stewardship (IBTrACS)を、ウェブで閲覧しやすい形式に変換したものです。

最終更新日:2021-10-25